sensor_id;sensor_type;location;lat;lon;timestamp;P1;durP1;ratioP1;P2;durP2;ratioP2
35380;SDS011;21486;51.916;8.378;2023-02-26T01:35:50;11.13;;;4.18;;
35380;SDS011;21486;51.916;8.378;2023-02-26T01:38:26;13.07;;;4.00;;
35380;SDS011;21486;51.916;8.378;2023-02-26T01:41:24;6.77;;;3.50;;
35380;SDS011;21486;51.916;8.378;2023-02-26T01:46:56;11.52;;;3.20;;
35380;SDS011;21486;51.916;8.378;2023-02-26T01:49:28;7.28;;;2.85;;
35380;SDS011;21486;51.916;8.378;2023-02-26T01:51:56;9.13;;;3.15;;
35380;SDS011;21486;51.916;8.378;2023-02-26T01:56:58;8.20;;;3.30;;
35380;SDS011;21486;51.916;8.378;2023-02-26T01:59:26;8.45;;;3.30;;
35380;SDS011;21486;51.916;8.378;2023-02-26T02:01:52;9.70;;;3.30;;
35380;SDS011;21486;51.916;8.378;2023-02-26T02:04:20;7.70;;;3.70;;
35380;SDS011;21486;51.916;8.378;2023-02-26T02:06:48;6.45;;;3.47;;
35380;SDS011;21486;51.916;8.378;2023-02-26T02:09:14;5.82;;;3.15;;
35380;SDS011;21486;51.916;8.378;2023-02-26T02:11:45;10.13;;;3.83;;
35380;SDS011;21486;51.916;8.378;2023-02-26T02:14:37;10.00;;;3.60;;
35380;SDS011;21486;51.916;8.378;2023-02-26T02:17:12;13.07;;;3.35;;
35380;SDS011;21486;51.916;8.378;2023-02-26T02:19:54;7.50;;;3.25;;
35380;SDS011;21486;51.916;8.378;2023-02-26T02:31:28;8.80;;;2.70;;
35380;SDS011;21486;51.916;8.378;2023-02-26T02:34:02;8.30;;;3.50;;
35380;SDS011;21486;51.916;8.378;2023-02-26T02:39:08;9.77;;;3.27;;
35380;SDS011;21486;51.916;8.378;2023-02-26T02:41:59;5.95;;;2.50;;
35380;SDS011;21486;51.916;8.378;2023-02-26T02:44:33;5.38;;;2.85;;
35380;SDS011;21486;51.916;8.378;2023-02-26T02:47:03;7.07;;;3.00;;
35380;SDS011;21486;51.916;8.378;2023-02-26T02:49:31;9.75;;;3.35;;
35380;SDS011;21486;51.916;8.378;2023-02-26T02:52:03;7.15;;;3.15;;
35380;SDS011;21486;51.916;8.378;2023-02-26T02:54:34;10.25;;;3.30;;
35380;SDS011;21486;51.916;8.378;2023-02-26T02:57:42;7.05;;;3.40;;
35380;SDS011;21486;51.916;8.378;2023-02-26T03:00:00;8.98;;;3.55;;
35380;SDS011;21486;51.916;8.378;2023-02-26T03:05:27;6.68;;;3.13;;
35380;SDS011;21486;51.916;8.378;2023-02-26T03:07:54;10.30;;;3.47;;
35380;SDS011;21486;51.916;8.378;2023-02-26T03:10:22;8.65;;;3.38;;
35380;SDS011;21486;51.916;8.378;2023-02-26T03:12:48;6.35;;;2.97;;
35380;SDS011;21486;51.916;8.378;2023-02-26T03:15:14;7.60;;;3.63;;
35380;SDS011;21486;51.916;8.378;2023-02-26T03:17:50;6.60;;;3.30;;
35380;SDS011;21486;51.916;8.378;2023-02-26T03:23:06;8.35;;;3.40;;
35380;SDS011;21486;51.916;8.378;2023-02-26T03:25:44;7.07;;;2.83;;
35380;SDS011;21486;51.916;8.378;2023-02-26T03:28:18;13.83;;;3.77;;
35380;SDS011;21486;51.916;8.378;2023-02-26T03:30:58;8.43;;;3.15;;
35380;SDS011;21486;51.916;8.378;2023-02-26T03:33:59;7.38;;;3.40;;
35380;SDS011;21486;51.916;8.378;2023-02-26T03:36:35;9.65;;;3.63;;
35380;SDS011;21486;51.916;8.378;2023-02-26T03:39:13;8.85;;;3.13;;
35380;SDS011;21486;51.916;8.378;2023-02-26T03:44:29;5.93;;;3.33;;
35380;SDS011;21486;51.916;8.378;2023-02-26T03:47:03;5.93;;;2.92;;
35380;SDS011;21486;51.916;8.378;2023-02-26T03:49:33;9.93;;;3.07;;
35380;SDS011;21486;51.916;8.378;2023-02-26T03:52:04;8.82;;;2.95;;
35380;SDS011;21486;51.916;8.378;2023-02-26T03:54:32;8.70;;;3.05;;
35380;SDS011;21486;51.916;8.378;2023-02-26T03:57:01;8.60;;;2.80;;
35380;SDS011;21486;51.916;8.378;2023-02-26T03:59:27;8.00;;;2.80;;
35380;SDS011;21486;51.916;8.378;2023-02-26T04:02:03;8.23;;;2.80;;
35380;SDS011;21486;51.916;8.378;2023-02-26T04:04:48;8.20;;;3.00;;
35380;SDS011;21486;51.916;8.378;2023-02-26T04:07:17;4.77;;;2.70;;
35380;SDS011;21486;51.916;8.378;2023-02-26T04:09:45;7.95;;;2.72;;
35380;SDS011;21486;51.916;8.378;2023-02-26T04:12:12;8.15;;;3.08;;
35380;SDS011;21486;51.916;8.378;2023-02-26T04:14:38;9.05;;;3.00;;
35380;SDS011;21486;51.916;8.378;2023-02-26T04:17:04;5.57;;;2.78;;
35380;SDS011;21486;51.916;8.378;2023-02-26T04:19:29;6.90;;;2.75;;
35380;SDS011;21486;51.916;8.378;2023-02-26T04:21:55;5.13;;;2.47;;
35380;SDS011;21486;51.916;8.378;2023-02-26T04:24:21;10.57;;;3.10;;
35380;SDS011;21486;51.916;8.378;2023-02-26T04:26:47;8.75;;;3.00;;
35380;SDS011;21486;51.916;8.378;2023-02-26T04:29:13;4.90;;;2.72;;
35380;SDS011;21486;51.916;8.378;2023-02-26T04:31:38;6.30;;;2.63;;
35380;SDS011;21486;51.916;8.378;2023-02-26T04:34:04;4.45;;;2.58;;
35380;SDS011;21486;51.916;8.378;2023-02-26T04:36:29;10.30;;;3.00;;
35380;SDS011;21486;51.916;8.378;2023-02-26T04:38:55;6.70;;;2.95;;
35380;SDS011;21486;51.916;8.378;2023-02-26T04:41:21;11.47;;;3.27;;
35380;SDS011;21486;51.916;8.378;2023-02-26T04:43:46;6.63;;;2.63;;
35380;SDS011;21486;51.916;8.378;2023-02-26T04:46:12;9.37;;;3.10;;
35380;SDS011;21486;51.916;8.378;2023-02-26T04:48:38;6.43;;;2.70;;
35380;SDS011;21486;51.916;8.378;2023-02-26T04:51:03;6.20;;;2.77;;
35380;SDS011;21486;51.916;8.378;2023-02-26T04:53:29;5.93;;;2.70;;
35380;SDS011;21486;51.916;8.378;2023-02-26T04:55:54;5.95;;;2.58;;
35380;SDS011;21486;51.916;8.378;2023-02-26T04:58:20;5.80;;;2.90;;
35380;SDS011;21486;51.916;8.378;2023-02-26T05:00:49;9.30;;;2.97;;
35380;SDS011;21486;51.916;8.378;2023-02-26T05:03:16;7.13;;;2.78;;
35380;SDS011;21486;51.916;8.378;2023-02-26T05:05:42;7.00;;;2.67;;
35380;SDS011;21486;51.916;8.378;2023-02-26T05:08:08;7.57;;;2.87;;
35380;SDS011;21486;51.916;8.378;2023-02-26T05:10:34;5.80;;;2.72;;
35380;SDS011;21486;51.916;8.378;2023-02-26T05:13:00;8.73;;;3.03;;
35380;SDS011;21486;51.916;8.378;2023-02-26T05:15:25;8.47;;;2.63;;
35380;SDS011;21486;51.916;8.378;2023-02-26T05:17:51;4.83;;;2.40;;
35380;SDS011;21486;51.916;8.378;2023-02-26T05:20:16;6.30;;;2.83;;
35380;SDS011;21486;51.916;8.378;2023-02-26T05:22:42;9.40;;;3.70;;
35380;SDS011;21486;51.916;8.378;2023-02-26T05:25:08;8.07;;;2.67;;
35380;SDS011;21486;51.916;8.378;2023-02-26T05:27:35;7.63;;;2.80;;
35380;SDS011;21486;51.916;8.378;2023-02-26T05:30:01;7.00;;;2.70;;
35380;SDS011;21486;51.916;8.378;2023-02-26T05:32:27;7.75;;;2.88;;
35380;SDS011;21486;51.916;8.378;2023-02-26T05:34:52;7.47;;;2.87;;
35380;SDS011;21486;51.916;8.378;2023-02-26T05:37:18;11.37;;;3.03;;
35380;SDS011;21486;51.916;8.378;2023-02-26T05:39:44;8.90;;;2.80;;
35380;SDS011;21486;51.916;8.378;2023-02-26T05:42:09;6.17;;;2.80;;
35380;SDS011;21486;51.916;8.378;2023-02-26T05:44:35;8.43;;;2.87;;
35380;SDS011;21486;51.916;8.378;2023-02-26T05:47:00;6.93;;;2.70;;
35380;SDS011;21486;51.916;8.378;2023-02-26T05:49:26;7.60;;;3.15;;
35380;SDS011;21486;51.916;8.378;2023-02-26T05:51:52;8.98;;;3.03;;
35380;SDS011;21486;51.916;8.378;2023-02-26T05:54:18;7.28;;;2.65;;
35380;SDS011;21486;51.916;8.378;2023-02-26T05:56:43;6.90;;;2.77;;
35380;SDS011;21486;51.916;8.378;2023-02-26T05:59:09;4.70;;;2.70;;
35380;SDS011;21486;51.916;8.378;2023-02-26T06:01:35;8.40;;;2.80;;
35380;SDS011;21486;51.916;8.378;2023-02-26T06:04:04;8.20;;;3.20;;
35380;SDS011;21486;51.916;8.378;2023-02-26T06:06:30;7.75;;;2.80;;
35380;SDS011;21486;51.916;8.378;2023-02-26T06:08:56;6.63;;;3.08;;
35380;SDS011;21486;51.916;8.378;2023-02-26T06:11:22;6.07;;;2.65;;
35380;SDS011;21486;51.916;8.378;2023-02-26T06:13:48;6.53;;;2.55;;
35380;SDS011;21486;51.916;8.378;2023-02-26T06:16:14;7.25;;;2.92;;
35380;SDS011;21486;51.916;8.378;2023-02-26T06:18:39;6.03;;;3.27;;
35380;SDS011;21486;51.916;8.378;2023-02-26T06:21:05;5.93;;;2.90;;
35380;SDS011;21486;51.916;8.378;2023-02-26T06:23:31;9.13;;;2.85;;
35380;SDS011;21486;51.916;8.378;2023-02-26T06:25:56;7.05;;;2.80;;
35380;SDS011;21486;51.916;8.378;2023-02-26T06:28:23;7.03;;;2.63;;
35380;SDS011;21486;51.916;8.378;2023-02-26T06:30:50;5.10;;;3.05;;
35380;SDS011;21486;51.916;8.378;2023-02-26T06:33:17;6.72;;;2.88;;
35380;SDS011;21486;51.916;8.378;2023-02-26T06:35:42;5.77;;;2.40;;
35380;SDS011;21486;51.916;8.378;2023-02-26T06:38:08;6.23;;;2.80;;
35380;SDS011;21486;51.916;8.378;2023-02-26T06:40:33;7.67;;;2.73;;
35380;SDS011;21486;51.916;8.378;2023-02-26T06:42:59;9.37;;;2.93;;
35380;SDS011;21486;51.916;8.378;2023-02-26T06:45:24;5.57;;;2.60;;
35380;SDS011;21486;51.916;8.378;2023-02-26T06:47:50;8.37;;;2.87;;
35380;SDS011;21486;51.916;8.378;2023-02-26T06:50:16;7.70;;;2.57;;
35380;SDS011;21486;51.916;8.378;2023-02-26T06:52:42;9.25;;;3.40;;
35380;SDS011;21486;51.916;8.378;2023-02-26T06:55:07;6.47;;;2.65;;
35380;SDS011;21486;51.916;8.378;2023-02-26T06:57:33;4.20;;;2.58;;
35380;SDS011;21486;51.916;8.378;2023-02-26T06:59:59;6.07;;;2.60;;
35380;SDS011;21486;51.916;8.378;2023-02-26T07:02:25;5.63;;;2.70;;
35380;SDS011;21486;51.916;8.378;2023-02-26T07:04:50;6.70;;;2.60;;
35380;SDS011;21486;51.916;8.378;2023-02-26T07:07:16;8.82;;;2.65;;
35380;SDS011;21486;51.916;8.378;2023-02-26T07:09:42;7.80;;;3.00;;
35380;SDS011;21486;51.916;8.378;2023-02-26T07:12:08;6.38;;;2.70;;
35380;SDS011;21486;51.916;8.378;2023-02-26T07:14:33;7.90;;;2.73;;
35380;SDS011;21486;51.916;8.378;2023-02-26T07:17:00;6.00;;;2.58;;
35380;SDS011;21486;51.916;8.378;2023-02-26T07:19:26;7.78;;;3.00;;
35380;SDS011;21486;51.916;8.378;2023-02-26T07:21:51;9.95;;;3.20;;
35380;SDS011;21486;51.916;8.378;2023-02-26T07:24:18;8.07;;;2.83;;
35380;SDS011;21486;51.916;8.378;2023-02-26T07:26:44;6.60;;;2.95;;
35380;SDS011;21486;51.916;8.378;2023-02-26T07:29:10;4.83;;;2.70;;
35380;SDS011;21486;51.916;8.378;2023-02-26T07:31:36;6.83;;;2.67;;
35380;SDS011;21486;51.916;8.378;2023-02-26T07:34:01;9.00;;;2.80;;
35380;SDS011;21486;51.916;8.378;2023-02-26T07:36:27;9.17;;;2.90;;
35380;SDS011;21486;51.916;8.378;2023-02-26T07:38:53;7.40;;;2.70;;
35380;SDS011;21486;51.916;8.378;2023-02-26T07:41:18;7.13;;;3.08;;
35380;SDS011;21486;51.916;8.378;2023-02-26T07:43:44;7.88;;;2.92;;
35380;SDS011;21486;51.916;8.378;2023-02-26T07:46:10;7.28;;;2.78;;
35380;SDS011;21486;51.916;8.378;2023-02-26T07:48:36;8.93;;;3.17;;
35380;SDS011;21486;51.916;8.378;2023-02-26T07:51:02;10.63;;;3.05;;
35380;SDS011;21486;51.916;8.378;2023-02-26T07:53:27;9.55;;;2.80;;
35380;SDS011;21486;51.916;8.378;2023-02-26T07:55:53;7.60;;;2.63;;
35380;SDS011;21486;51.916;8.378;2023-02-26T07:58:18;6.88;;;2.60;;
35380;SDS011;21486;51.916;8.378;2023-02-26T08:00:44;9.82;;;3.08;;
35380;SDS011;21486;51.916;8.378;2023-02-26T08:03:09;8.23;;;2.63;;
35380;SDS011;21486;51.916;8.378;2023-02-26T08:05:35;11.80;;;3.00;;
35380;SDS011;21486;51.916;8.378;2023-02-26T08:08:00;7.65;;;2.90;;
35380;SDS011;21486;51.916;8.378;2023-02-26T08:10:27;11.50;;;3.80;;
35380;SDS011;21486;51.916;8.378;2023-02-26T08:12:53;7.82;;;2.70;;
35380;SDS011;21486;51.916;8.378;2023-02-26T08:15:19;9.25;;;3.05;;
35380;SDS011;21486;51.916;8.378;2023-02-26T08:17:45;7.77;;;3.03;;
35380;SDS011;21486;51.916;8.378;2023-02-26T08:20:11;6.88;;;2.83;;
35380;SDS011;21486;51.916;8.378;2023-02-26T08:22:39;7.07;;;2.67;;
35380;SDS011;21486;51.916;8.378;2023-02-26T08:25:05;7.73;;;2.83;;
35380;SDS011;21486;51.916;8.378;2023-02-26T08:27:31;7.43;;;2.83;;
35380;SDS011;21486;51.916;8.378;2023-02-26T08:29:57;9.57;;;2.80;;
35380;SDS011;21486;51.916;8.378;2023-02-26T08:32:22;7.07;;;2.60;;
35380;SDS011;21486;51.916;8.378;2023-02-26T08:34:50;6.38;;;2.40;;
35380;SDS011;21486;51.916;8.378;2023-02-26T08:37:16;9.03;;;2.40;;
35380;SDS011;21486;51.916;8.378;2023-02-26T08:39:42;8.87;;;2.67;;
35380;SDS011;21486;51.916;8.378;2023-02-26T08:42:08;6.87;;;2.37;;
35380;SDS011;21486;51.916;8.378;2023-02-26T08:44:34;5.85;;;2.47;;
35380;SDS011;21486;51.916;8.378;2023-02-26T08:46:59;6.33;;;2.37;;
35380;SDS011;21486;51.916;8.378;2023-02-26T08:49:25;7.23;;;2.50;;
35380;SDS011;21486;51.916;8.378;2023-02-26T08:51:51;7.77;;;2.37;;
35380;SDS011;21486;51.916;8.378;2023-02-26T08:54:17;4.07;;;2.20;;
35380;SDS011;21486;51.916;8.378;2023-02-26T08:56:48;4.82;;;2.10;;
35380;SDS011;21486;51.916;8.378;2023-02-26T08:59:14;6.30;;;2.10;;
35380;SDS011;21486;51.916;8.378;2023-02-26T09:01:40;6.30;;;2.30;;
35380;SDS011;21486;51.916;8.378;2023-02-26T09:04:06;5.82;;;2.15;;
35380;SDS011;21486;51.916;8.378;2023-02-26T09:06:40;9.35;;;3.00;;
35380;SDS011;21486;51.916;8.378;2023-02-26T09:09:06;7.00;;;3.35;;
35380;SDS011;21486;51.916;8.378;2023-02-26T09:11:32;8.02;;;3.30;;
35380;SDS011;21486;51.916;8.378;2023-02-26T09:13:58;5.82;;;2.42;;
35380;SDS011;21486;51.916;8.378;2023-02-26T09:16:33;7.68;;;2.40;;
35380;SDS011;21486;51.916;8.378;2023-02-26T09:19:00;4.97;;;2.33;;
35380;SDS011;21486;51.916;8.378;2023-02-26T09:21:26;5.35;;;1.98;;
35380;SDS011;21486;51.916;8.378;2023-02-26T09:23:52;9.47;;;2.13;;
35380;SDS011;21486;51.916;8.378;2023-02-26T09:26:17;6.18;;;1.77;;
35380;SDS011;21486;51.916;8.378;2023-02-26T09:28:43;5.20;;;1.83;;
35380;SDS011;21486;51.916;8.378;2023-02-26T09:31:08;6.50;;;1.87;;
35380;SDS011;21486;51.916;8.378;2023-02-26T09:33:34;4.70;;;1.63;;
35380;SDS011;21486;51.916;8.378;2023-02-26T09:36:00;5.20;;;1.50;;
35380;SDS011;21486;51.916;8.378;2023-02-26T09:38:25;4.10;;;1.57;;
35380;SDS011;21486;51.916;8.378;2023-02-26T09:46:26;3.60;;;1.27;;
35380;SDS011;21486;51.916;8.378;2023-02-26T09:48:56;4.20;;;1.50;;
35380;SDS011;21486;51.916;8.378;2023-02-26T09:51:27;3.72;;;1.27;;
35380;SDS011;21486;51.916;8.378;2023-02-26T09:53:55;3.22;;;1.48;;
35380;SDS011;21486;51.916;8.378;2023-02-26T09:56:24;4.43;;;1.98;;
35380;SDS011;21486;51.916;8.378;2023-02-26T09:58:51;5.00;;;1.40;;
35380;SDS011;21486;51.916;8.378;2023-02-26T10:06:29;5.63;;;1.40;;
35380;SDS011;21486;51.916;8.378;2023-02-26T10:12:15;3.85;;;1.40;;
35380;SDS011;21486;51.916;8.378;2023-02-26T10:15:25;2.58;;;1.33;;
35380;SDS011;21486;51.916;8.378;2023-02-26T10:20:36;3.08;;;1.20;;
35380;SDS011;21486;51.916;8.378;2023-02-26T10:23:20;4.05;;;1.40;;
35380;SDS011;21486;51.916;8.378;2023-02-26T10:31:36;3.03;;;1.50;;
35380;SDS011;21486;51.916;8.378;2023-02-26T10:43:03;4.18;;;1.45;;
35380;SDS011;21486;51.916;8.378;2023-02-26T10:50:53;2.90;;;1.30;;
35380;SDS011;21486;51.916;8.378;2023-02-26T10:53:22;3.77;;;1.30;;
35380;SDS011;21486;51.916;8.378;2023-02-26T10:55:50;5.20;;;1.25;;
35380;SDS011;21486;51.916;8.378;2023-02-26T10:58:29;2.40;;;1.02;;
35380;SDS011;21486;51.916;8.378;2023-02-26T11:00:55;4.87;;;1.27;;
35380;SDS011;21486;51.916;8.378;2023-02-26T11:05:52;3.63;;;1.30;;
35380;SDS011;21486;51.916;8.378;2023-02-26T11:08:19;4.10;;;1.30;;
35380;SDS011;21486;51.916;8.378;2023-02-26T11:10:51;3.37;;;1.13;;
35380;SDS011;21486;51.916;8.378;2023-02-26T11:13:20;2.97;;;1.50;;
35380;SDS011;21486;51.916;8.378;2023-02-26T11:15:47;2.40;;;1.05;;
35380;SDS011;21486;51.916;8.378;2023-02-26T11:18:18;4.43;;;1.50;;
35380;SDS011;21486;51.916;8.378;2023-02-26T11:20:47;3.40;;;1.40;;
35380;SDS011;21486;51.916;8.378;2023-02-26T11:23:15;3.88;;;1.23;;
35380;SDS011;21486;51.916;8.378;2023-02-26T11:25:44;4.15;;;1.30;;
35380;SDS011;21486;51.916;8.378;2023-02-26T11:30:59;3.35;;;1.20;;
35380;SDS011;21486;51.916;8.378;2023-02-26T11:33:33;2.08;;;1.08;;
35380;SDS011;21486;51.916;8.378;2023-02-26T11:36:05;1.38;;;1.23;;
35380;SDS011;21486;51.916;8.378;2023-02-26T11:38:35;2.95;;;1.20;;
35380;SDS011;21486;51.916;8.378;2023-02-26T11:41:01;1.70;;;1.13;;
35380;SDS011;21486;51.916;8.378;2023-02-26T11:43:32;2.17;;;1.23;;
35380;SDS011;21486;51.916;8.378;2023-02-26T11:46:01;2.67;;;1.10;;
35380;SDS011;21486;51.916;8.378;2023-02-26T11:48:38;2.80;;;1.20;;
35380;SDS011;21486;51.916;8.378;2023-02-26T11:51:10;2.63;;;1.27;;
35380;SDS011;21486;51.916;8.378;2023-02-26T11:53:47;4.07;;;1.45;;
35380;SDS011;21486;51.916;8.378;2023-02-26T11:56:40;3.45;;;1.10;;
35380;SDS011;21486;51.916;8.378;2023-02-26T11:59:12;5.50;;;1.30;;
35380;SDS011;21486;51.916;8.378;2023-02-26T12:01:41;3.15;;;1.20;;
35380;SDS011;21486;51.916;8.378;2023-02-26T12:04:08;3.13;;;1.07;;
35380;SDS011;21486;51.916;8.378;2023-02-26T12:06:36;3.35;;;1.10;;
35380;SDS011;21486;51.916;8.378;2023-02-26T12:09:02;3.35;;;1.20;;
35380;SDS011;21486;51.916;8.378;2023-02-26T12:14:46;3.10;;;1.30;;
35380;SDS011;21486;51.916;8.378;2023-02-26T12:17:57;2.60;;;1.50;;
35380;SDS011;21486;51.916;8.378;2023-02-26T12:20:50;3.03;;;1.55;;
35380;SDS011;21486;51.916;8.378;2023-02-26T12:23:41;2.85;;;1.40;;
35380;SDS011;21486;51.916;8.378;2023-02-26T12:26:21;3.88;;;1.45;;
35380;SDS011;21486;51.916;8.378;2023-02-26T12:29:31;1.63;;;1.45;;
35380;SDS011;21486;51.916;8.378;2023-02-26T12:32:04;1.67;;;1.20;;
35380;SDS011;21486;51.916;8.378;2023-02-26T12:35:10;2.20;;;1.20;;
35380;SDS011;21486;51.916;8.378;2023-02-26T12:43:48;3.65;;;1.60;;
35380;SDS011;21486;51.916;8.378;2023-02-26T12:49:21;4.63;;;1.60;;
35380;SDS011;21486;51.916;8.378;2023-02-26T12:52:28;3.78;;;1.40;;
35380;SDS011;21486;51.916;8.378;2023-02-26T13:01:19;3.77;;;1.50;;
35380;SDS011;21486;51.916;8.378;2023-02-26T13:04:10;4.55;;;1.75;;
35380;SDS011;21486;51.916;8.378;2023-02-26T13:06:57;2.92;;;1.42;;
35380;SDS011;21486;51.916;8.378;2023-02-26T13:13:15;2.90;;;1.50;;
35380;SDS011;21486;51.916;8.378;2023-02-26T13:15:36;2.10;;;1.20;;
35380;SDS011;21486;51.916;8.378;2023-02-26T13:18:24;5.70;;;2.08;;
35380;SDS011;21486;51.916;8.378;2023-02-26T13:21:21;4.10;;;1.50;;
35380;SDS011;21486;51.916;8.378;2023-02-26T13:24:05;3.92;;;1.88;;
35380;SDS011;21486;51.916;8.378;2023-02-26T13:26:52;3.53;;;1.55;;
35380;SDS011;21486;51.916;8.378;2023-02-26T13:29:24;3.00;;;1.50;;
35380;SDS011;21486;51.916;8.378;2023-02-26T13:32:03;4.53;;;1.88;;
35380;SDS011;21486;51.916;8.378;2023-02-26T13:34:56;2.87;;;1.47;;
35380;SDS011;21486;51.916;8.378;2023-02-26T13:37:30;3.40;;;1.70;;
35380;SDS011;21486;51.916;8.378;2023-02-26T13:40:14;3.53;;;1.60;;
35380;SDS011;21486;51.916;8.378;2023-02-26T13:43:14;3.28;;;1.52;;
35380;SDS011;21486;51.916;8.378;2023-02-26T13:49:21;3.70;;;1.30;;
35380;SDS011;21486;51.916;8.378;2023-02-26T13:51:55;2.15;;;1.40;;
35380;SDS011;21486;51.916;8.378;2023-02-26T14:04:51;7.25;;;1.65;;
35380;SDS011;21486;51.916;8.378;2023-02-26T14:07:44;2.95;;;1.52;;
35380;SDS011;21486;51.916;8.378;2023-02-26T14:13:18;4.03;;;1.60;;
35380;SDS011;21486;51.916;8.378;2023-02-26T14:15:58;5.03;;;1.67;;
35380;SDS011;21486;51.916;8.378;2023-02-26T14:23:59;3.22;;;1.55;;
35380;SDS011;21486;51.916;8.378;2023-02-26T14:26:48;5.05;;;1.95;;
35380;SDS011;21486;51.916;8.378;2023-02-26T14:32:34;3.60;;;1.60;;
35380;SDS011;21486;51.916;8.378;2023-02-26T14:35:11;4.00;;;2.00;;
35380;SDS011;21486;51.916;8.378;2023-02-26T14:37:44;6.35;;;1.88;;
35380;SDS011;21486;51.916;8.378;2023-02-26T14:40:19;3.38;;;1.50;;
35380;SDS011;21486;51.916;8.378;2023-02-26T14:42:53;3.85;;;1.80;;
35380;SDS011;21486;51.916;8.378;2023-02-26T14:47:47;2.47;;;1.70;;
35380;SDS011;21486;51.916;8.378;2023-02-26T14:50:15;3.90;;;2.10;;
35380;SDS011;21486;51.916;8.378;2023-02-26T14:53:03;4.15;;;1.67;;
35380;SDS011;21486;51.916;8.378;2023-02-26T14:55:46;4.50;;;1.77;;
35380;SDS011;21486;51.916;8.378;2023-02-26T14:58:40;5.05;;;1.75;;
35380;SDS011;21486;51.916;8.378;2023-02-26T15:01:26;5.50;;;1.70;;
35380;SDS011;21486;51.916;8.378;2023-02-26T15:04:13;5.53;;;2.17;;
35380;SDS011;21486;51.916;8.378;2023-02-26T15:09:50;3.90;;;1.70;;
35380;SDS011;21486;51.916;8.378;2023-02-26T15:15:51;2.50;;;1.42;;
35380;SDS011;21486;51.916;8.378;2023-02-26T15:18:41;3.65;;;1.65;;
35380;SDS011;21486;51.916;8.378;2023-02-26T15:23:57;4.28;;;1.65;;
35380;SDS011;21486;51.916;8.378;2023-02-26T15:28:51;5.43;;;2.47;;
35380;SDS011;21486;51.916;8.378;2023-02-26T15:31:19;3.45;;;2.30;;
35380;SDS011;21486;51.916;8.378;2023-02-26T15:33:54;4.32;;;2.08;;
35380;SDS011;21486;51.916;8.378;2023-02-26T15:36:20;2.93;;;1.50;;
35380;SDS011;21486;51.916;8.378;2023-02-26T15:38:49;1.83;;;1.50;;
35380;SDS011;21486;51.916;8.378;2023-02-26T15:41:19;3.78;;;1.63;;
35380;SDS011;21486;51.916;8.378;2023-02-26T15:43:47;2.00;;;1.30;;
35380;SDS011;21486;51.916;8.378;2023-02-26T15:46:16;2.92;;;1.50;;
35380;SDS011;21486;51.916;8.378;2023-02-26T15:48:51;1.55;;;1.40;;
35380;SDS011;21486;51.916;8.378;2023-02-26T15:51:18;2.92;;;1.77;;
35380;SDS011;21486;51.916;8.378;2023-02-26T15:53:46;3.25;;;1.60;;
35380;SDS011;21486;51.916;8.378;2023-02-26T15:56:23;2.75;;;1.63;;
35380;SDS011;21486;51.916;8.378;2023-02-26T15:58:55;3.90;;;1.60;;
35380;SDS011;21486;51.916;8.378;2023-02-26T16:01:25;5.32;;;1.77;;
35380;SDS011;21486;51.916;8.378;2023-02-26T16:03:53;4.85;;;2.08;;
35380;SDS011;21486;51.916;8.378;2023-02-26T16:06:23;4.78;;;1.80;;
35380;SDS011;21486;51.916;8.378;2023-02-26T16:08:52;3.80;;;1.85;;
35380;SDS011;21486;51.916;8.378;2023-02-26T16:11:18;3.40;;;2.27;;
35380;SDS011;21486;51.916;8.378;2023-02-26T16:13:45;4.40;;;1.90;;
35380;SDS011;21486;51.916;8.378;2023-02-26T16:16:24;6.03;;;2.50;;
35380;SDS011;21486;51.916;8.378;2023-02-26T16:18:53;3.58;;;2.45;;
35380;SDS011;21486;51.916;8.378;2023-02-26T16:21:26;3.03;;;1.77;;
35380;SDS011;21486;51.916;8.378;2023-02-26T16:23:56;3.90;;;1.75;;
35380;SDS011;21486;51.916;8.378;2023-02-26T16:26:31;3.55;;;2.30;;
35380;SDS011;21486;51.916;8.378;2023-02-26T16:29:02;7.32;;;3.20;;
35380;SDS011;21486;51.916;8.378;2023-02-26T16:31:32;5.72;;;3.63;;
35380;SDS011;21486;51.916;8.378;2023-02-26T16:36:29;2.72;;;1.80;;
35380;SDS011;21486;51.916;8.378;2023-02-26T16:39:00;3.38;;;1.92;;
35380;SDS011;21486;51.916;8.378;2023-02-26T16:41:30;3.15;;;1.92;;
35380;SDS011;21486;51.916;8.378;2023-02-26T16:43:59;4.72;;;2.05;;
35380;SDS011;21486;51.916;8.378;2023-02-26T16:46:43;4.93;;;2.00;;
35380;SDS011;21486;51.916;8.378;2023-02-26T16:49:19;3.40;;;1.67;;
35380;SDS011;21486;51.916;8.378;2023-02-26T16:51:50;4.18;;;2.10;;
35380;SDS011;21486;51.916;8.378;2023-02-26T16:54:24;2.97;;;1.83;;
35380;SDS011;21486;51.916;8.378;2023-02-26T16:57:05;2.70;;;1.55;;
35380;SDS011;21486;51.916;8.378;2023-02-26T16:59:45;4.75;;;2.08;;
35380;SDS011;21486;51.916;8.378;2023-02-26T17:02:24;4.32;;;2.20;;
35380;SDS011;21486;51.916;8.378;2023-02-26T17:04:53;4.35;;;2.40;;
35380;SDS011;21486;51.916;8.378;2023-02-26T17:07:33;5.53;;;2.30;;
35380;SDS011;21486;51.916;8.378;2023-02-26T17:10:06;2.92;;;2.10;;
35380;SDS011;21486;51.916;8.378;2023-02-26T17:12:52;6.22;;;2.92;;
35380;SDS011;21486;51.916;8.378;2023-02-26T17:15:28;5.50;;;2.70;;
35380;SDS011;21486;51.916;8.378;2023-02-26T17:17:55;5.93;;;2.17;;
35380;SDS011;21486;51.916;8.378;2023-02-26T17:20:22;3.38;;;1.95;;
35380;SDS011;21486;51.916;8.378;2023-02-26T17:22:48;3.55;;;1.83;;
35380;SDS011;21486;51.916;8.378;2023-02-26T17:25:15;2.97;;;1.80;;
35380;SDS011;21486;51.916;8.378;2023-02-26T17:27:42;2.55;;;1.80;;
35380;SDS011;21486;51.916;8.378;2023-02-26T17:30:11;2.50;;;2.10;;
35380;SDS011;21486;51.916;8.378;2023-02-26T17:32:40;5.00;;;2.30;;
35380;SDS011;21486;51.916;8.378;2023-02-26T17:35:06;4.28;;;2.10;;
35380;SDS011;21486;51.916;8.378;2023-02-26T17:37:32;3.38;;;2.05;;
35380;SDS011;21486;51.916;8.378;2023-02-26T17:39:59;4.63;;;2.10;;
35380;SDS011;21486;51.916;8.378;2023-02-26T17:42:26;3.72;;;2.10;;
35380;SDS011;21486;51.916;8.378;2023-02-26T17:44:52;4.93;;;2.20;;
35380;SDS011;21486;51.916;8.378;2023-02-26T17:47:19;3.83;;;1.90;;
35380;SDS011;21486;51.916;8.378;2023-02-26T17:49:47;5.13;;;2.10;;
35380;SDS011;21486;51.916;8.378;2023-02-26T17:52:13;11.53;;;3.03;;
35380;SDS011;21486;51.916;8.378;2023-02-26T17:54:39;5.82;;;2.50;;
35380;SDS011;21486;51.916;8.378;2023-02-26T17:57:05;5.50;;;2.47;;
35380;SDS011;21486;51.916;8.378;2023-02-26T17:59:31;5.82;;;2.70;;
35380;SDS011;21486;51.916;8.378;2023-02-26T18:01:58;8.13;;;2.97;;
35380;SDS011;21486;51.916;8.378;2023-02-26T18:04:24;7.82;;;3.20;;
35380;SDS011;21486;51.916;8.378;2023-02-26T18:06:50;5.00;;;2.30;;
35380;SDS011;21486;51.916;8.378;2023-02-26T18:09:15;5.30;;;2.67;;
35380;SDS011;21486;51.916;8.378;2023-02-26T18:11:41;4.25;;;2.80;;
35380;SDS011;21486;51.916;8.378;2023-02-26T18:14:07;4.88;;;2.83;;
35380;SDS011;21486;51.916;8.378;2023-02-26T18:16:34;6.20;;;2.93;;
35380;SDS011;21486;51.916;8.378;2023-02-26T18:19:02;4.88;;;2.40;;
35380;SDS011;21486;51.916;8.378;2023-02-26T18:21:29;6.18;;;2.65;;
35380;SDS011;21486;51.916;8.378;2023-02-26T18:23:55;4.87;;;2.80;;
35380;SDS011;21486;51.916;8.378;2023-02-26T18:26:21;6.47;;;2.97;;
35380;SDS011;21486;51.916;8.378;2023-02-26T18:28:51;4.93;;;2.20;;
35380;SDS011;21486;51.916;8.378;2023-02-26T18:31:19;5.28;;;2.80;;
35380;SDS011;21486;51.916;8.378;2023-02-26T18:33:45;5.90;;;2.53;;
35380;SDS011;21486;51.916;8.378;2023-02-26T18:36:12;5.63;;;3.13;;
35380;SDS011;21486;51.916;8.378;2023-02-26T18:38:47;5.68;;;2.70;;
35380;SDS011;21486;51.916;8.378;2023-02-26T18:41:12;7.18;;;3.15;;
35380;SDS011;21486;51.916;8.378;2023-02-26T18:43:38;8.43;;;4.20;;
35380;SDS011;21486;51.916;8.378;2023-02-26T18:46:03;5.88;;;3.00;;
35380;SDS011;21486;51.916;8.378;2023-02-26T18:48:29;6.60;;;3.65;;
35380;SDS011;21486;51.916;8.378;2023-02-26T18:50:54;5.07;;;3.45;;
35380;SDS011;21486;51.916;8.378;2023-02-26T18:53:20;6.35;;;3.03;;
35380;SDS011;21486;51.916;8.378;2023-02-26T18:55:50;4.53;;;2.80;;